OMD8 CYQR-CYWG
Flight info
| Callsign | OMD8 |
|---|---|
| Flight time | 0h 51m |
| Altitude | 18000 |
| Route | EMLIK DCT SEGAP BEFAN5 |
| Aircraft | B350/L-SBGRW/S |
Departure
| Time | 2026-04-27 01:03 |
|---|---|
| Airport | Regina International Airport (CYQR) |
Arrival
| Time | 2026-04-27 01:54 |
|---|---|
| Airport | Winnipeg / James Armstrong Richardson International Airport (CYWG) |
| Time | Latitude | Longitude | Altitude | Speed | Heading |
|---|---|---|---|---|---|
| 2026-04-27 00:44 | 50.43114 | -104.65362 | 1899 ft | 0 kts | 137° |
| 2026-04-27 00:54 | 50.43120 | -104.65370 | 1895 ft | 2 kts | 137° |
| 2026-04-27 00:54 | 50.43131 | -104.65388 | 1895 ft | 2 kts | 137° |
| 2026-04-27 00:55 | 50.43144 | -104.65405 | 1898 ft | 2 kts | 162° |
| 2026-04-27 00:55 | 50.43153 | -104.65409 | 1906 ft | 2 kts | 238° |
| 2026-04-27 00:55 | 50.43158 | -104.65437 | 1897 ft | 4 kts | 283° |
| 2026-04-27 00:55 | 50.43158 | -104.65483 | 1904 ft | 7 kts | 266° |
| 2026-04-27 00:56 | 50.43134 | -104.65532 | 1907 ft | 0 kts | 228° |
| 2026-04-27 00:58 | 50.43133 | -104.65533 | 1908 ft | 2 kts | 228° |
| 2026-04-27 00:58 | 50.43100 | -104.65554 | 1898 ft | 9 kts | 178° |
| 2026-04-27 00:59 | 50.43021 | -104.65462 | 1904 ft | 19 kts | 137° |
| 2026-04-27 00:59 | 50.42903 | -104.65294 | 1900 ft | 27 kts | 138° |
| 2026-04-27 00:59 | 50.42755 | -104.65089 | 1898 ft | 30 kts | 140° |
| 2026-04-27 00:59 | 50.42585 | -104.64894 | 1904 ft | 30 kts | 168° |
| 2026-04-27 01:00 | 50.42521 | -104.64896 | 1906 ft | 0 kts | 186° |
| 2026-04-27 01:01 | 50.42504 | -104.64901 | 1902 ft | 7 kts | 192° |
| 2026-04-27 01:01 | 50.42454 | -104.64965 | 1917 ft | 12 kts | 226° |
| 2026-04-27 01:01 | 50.42457 | -104.65023 | 1918 ft | 6 kts | 303° |
| 2026-04-27 01:01 | 50.42494 | -104.65086 | 1918 ft | 10 kts | 318° |
| 2026-04-27 01:02 | 50.42768 | -104.65469 | 1902 ft | 96 kts | 317° |
| 2026-04-27 01:02 | 50.43414 | -104.66403 | 2059 ft | 145 kts | 316° |
| 2026-04-27 01:02 | 50.44243 | -104.67634 | 2256 ft | 186 kts | 315° |
| 2026-04-27 01:02 | 50.45274 | -104.69189 | 2488 ft | 224 kts | 315° |
| 2026-04-27 01:03 | 50.46616 | -104.70757 | 2747 ft | 257 kts | 335° |
| 2026-04-27 01:03 | 50.48450 | -104.71261 | 3031 ft | 280 kts | 1° |
| 2026-04-27 01:03 | 50.50290 | -104.70385 | 3244 ft | 274 kts | 28° |
| 2026-04-27 01:03 | 50.51686 | -104.68438 | 3450 ft | 271 kts | 46° |
| 2026-04-27 01:04 | 50.52773 | -104.65976 | 3690 ft | 282 kts | 63° |
| 2026-04-27 01:04 | 50.53273 | -104.62971 | 4583 ft | 284 kts | 82° |
| 2026-04-27 01:04 | 50.53371 | -104.59877 | 5654 ft | 282 kts | 90° |
| 2026-04-27 01:04 | 50.53254 | -104.56775 | 6672 ft | 285 kts | 95° |
| 2026-04-27 01:05 | 50.53018 | -104.53657 | 7591 ft | 289 kts | 97° |
| 2026-04-27 01:05 | 50.52733 | -104.50511 | 8428 ft | 297 kts | 98° |
| 2026-04-27 01:05 | 50.52429 | -104.47249 | 9234 ft | 305 kts | 98° |
| 2026-04-27 01:05 | 50.52133 | -104.43934 | 10059 ft | 313 kts | 98° |
| 2026-04-27 01:06 | 50.51843 | -104.40489 | 10837 ft | 321 kts | 99° |
| 2026-04-27 01:06 | 50.51559 | -104.36962 | 11622 ft | 329 kts | 99° |
| 2026-04-27 01:06 | 50.51277 | -104.33351 | 12415 ft | 337 kts | 100° |
| 2026-04-27 01:06 | 50.50992 | -104.29654 | 13223 ft | 345 kts | 101° |
| 2026-04-27 01:07 | 50.50705 | -104.25910 | 14029 ft | 353 kts | 101° |
| 2026-04-27 01:07 | 50.50407 | -104.22035 | 14768 ft | 359 kts | 101° |
| 2026-04-27 01:07 | 50.50103 | -104.18098 | 15564 ft | 364 kts | 102° |
| 2026-04-27 01:07 | 50.49798 | -104.14168 | 16354 ft | 369 kts | 102° |
| 2026-04-27 01:08 | 50.49482 | -104.10132 | 17155 ft | 374 kts | 102° |
| 2026-04-27 01:08 | 50.49162 | -104.06050 | 17802 ft | 379 kts | 102° |
| 2026-04-27 01:08 | 50.48834 | -104.01909 | 18055 ft | 384 kts | 102° |
| 2026-04-27 01:08 | 50.48495 | -103.97673 | 18076 ft | 399 kts | 102° |
| 2026-04-27 01:09 | 50.48138 | -103.93288 | 18081 ft | 419 kts | 102° |
| 2026-04-27 01:09 | 50.47765 | -103.88671 | 18071 ft | 426 kts | 102° |
| 2026-04-27 01:09 | 50.47393 | -103.84030 | 18066 ft | 428 kts | 102° |
| 2026-04-27 01:09 | 50.47022 | -103.79386 | 18065 ft | 429 kts | 102° |
| 2026-04-27 01:10 | 50.46649 | -103.74733 | 18067 ft | 429 kts | 102° |
| 2026-04-27 01:10 | 50.46272 | -103.70079 | 18058 ft | 429 kts | 102° |
| 2026-04-27 01:10 | 50.45896 | -103.65482 | 18061 ft | 430 kts | 102° |
| 2026-04-27 01:10 | 50.45512 | -103.60822 | 18060 ft | 430 kts | 102° |
| 2026-04-27 01:11 | 50.45125 | -103.56164 | 18060 ft | 430 kts | 102° |
| 2026-04-27 01:11 | 50.44736 | -103.51506 | 18061 ft | 430 kts | 102° |
| 2026-04-27 01:11 | 50.44344 | -103.46851 | 18062 ft | 430 kts | 102° |
| 2026-04-27 01:11 | 50.43951 | -103.42188 | 18059 ft | 431 kts | 102° |
| 2026-04-27 01:12 | 50.43560 | -103.37584 | 18060 ft | 431 kts | 102° |
| 2026-04-27 01:12 | 50.43162 | -103.32914 | 18058 ft | 431 kts | 102° |
| 2026-04-27 01:12 | 50.42762 | -103.28246 | 18056 ft | 431 kts | 102° |
| 2026-04-27 01:12 | 50.42360 | -103.23570 | 18058 ft | 431 kts | 102° |
| 2026-04-27 01:13 | 50.41957 | -103.18908 | 18058 ft | 432 kts | 103° |
| 2026-04-27 01:13 | 50.41550 | -103.14229 | 18056 ft | 432 kts | 103° |
| 2026-04-27 01:13 | 50.41147 | -103.09612 | 18052 ft | 432 kts | 103° |
| 2026-04-27 01:13 | 50.40738 | -103.04945 | 18055 ft | 432 kts | 103° |
| 2026-04-27 01:14 | 50.40325 | -103.00262 | 18049 ft | 433 kts | 103° |
| 2026-04-27 01:14 | 50.39910 | -102.95572 | 18050 ft | 433 kts | 103° |
| 2026-04-27 01:14 | 50.39499 | -102.90947 | 18052 ft | 433 kts | 103° |
| 2026-04-27 01:14 | 50.39080 | -102.86257 | 18055 ft | 433 kts | 103° |
| 2026-04-27 01:15 | 50.38660 | -102.81577 | 18048 ft | 433 kts | 103° |
| 2026-04-27 01:15 | 50.38238 | -102.76908 | 18048 ft | 433 kts | 103° |
| 2026-04-27 01:15 | 50.37816 | -102.72250 | 18053 ft | 433 kts | 103° |
| 2026-04-27 01:15 | 50.37390 | -102.67565 | 18048 ft | 433 kts | 103° |
| 2026-04-27 01:16 | 50.36967 | -102.62938 | 18049 ft | 433 kts | 103° |
| 2026-04-27 01:16 | 50.36537 | -102.58256 | 18049 ft | 433 kts | 103° |
| 2026-04-27 01:16 | 50.36105 | -102.53571 | 18046 ft | 434 kts | 103° |
| 2026-04-27 01:16 | 50.35572 | -102.48934 | 18047 ft | 431 kts | 108° |
| 2026-04-27 01:17 | 50.34879 | -102.44413 | 18043 ft | 429 kts | 110° |
| 2026-04-27 01:17 | 50.34139 | -102.39873 | 18042 ft | 429 kts | 110° |
| 2026-04-27 01:17 | 50.33392 | -102.35343 | 18045 ft | 429 kts | 110° |
| 2026-04-27 01:17 | 50.32642 | -102.30810 | 18040 ft | 430 kts | 110° |
| 2026-04-27 01:18 | 50.31892 | -102.26274 | 18043 ft | 430 kts | 110° |
| 2026-04-27 01:18 | 50.31148 | -102.21782 | 18045 ft | 430 kts | 110° |
| 2026-04-27 01:18 | 50.30398 | -102.17262 | 18040 ft | 430 kts | 111° |
| 2026-04-27 01:18 | 50.29645 | -102.12731 | 18047 ft | 430 kts | 111° |
| 2026-04-27 01:19 | 50.28887 | -102.08184 | 18044 ft | 430 kts | 111° |
| 2026-04-27 01:19 | 50.28136 | -102.03695 | 18044 ft | 430 kts | 111° |
| 2026-04-27 01:19 | 50.27376 | -101.99156 | 18043 ft | 431 kts | 111° |
| 2026-04-27 01:19 | 50.26614 | -101.94621 | 18044 ft | 431 kts | 111° |
| 2026-04-27 01:20 | 50.25849 | -101.90081 | 18041 ft | 431 kts | 111° |
| 2026-04-27 01:20 | 50.25081 | -101.85533 | 18044 ft | 431 kts | 111° |
| 2026-04-27 01:20 | 50.24324 | -101.81057 | 18041 ft | 431 kts | 111° |
| 2026-04-27 01:20 | 50.23551 | -101.76504 | 18038 ft | 431 kts | 111° |
| 2026-04-27 01:21 | 50.22778 | -101.71966 | 18037 ft | 432 kts | 111° |
| 2026-04-27 01:21 | 50.22006 | -101.67438 | 18037 ft | 432 kts | 111° |
| 2026-04-27 01:21 | 50.21231 | -101.62906 | 18037 ft | 432 kts | 111° |
| 2026-04-27 01:21 | 50.20452 | -101.58363 | 18032 ft | 432 kts | 111° |
| 2026-04-27 01:22 | 50.19673 | -101.53833 | 18046 ft | 432 kts | 111° |
| 2026-04-27 01:22 | 50.18901 | -101.49360 | 18031 ft | 432 kts | 111° |
| 2026-04-27 01:22 | 50.18119 | -101.44835 | 18042 ft | 432 kts | 111° |
| 2026-04-27 01:22 | 50.17335 | -101.40308 | 18034 ft | 432 kts | 111° |
| 2026-04-27 01:23 | 50.16549 | -101.35786 | 18044 ft | 431 kts | 111° |
| 2026-04-27 01:23 | 50.15762 | -101.31267 | 18030 ft | 431 kts | 111° |
| 2026-04-27 01:23 | 50.14981 | -101.26793 | 18038 ft | 431 kts | 111° |
| 2026-04-27 01:23 | 50.14192 | -101.22287 | 18029 ft | 431 kts | 111° |
| 2026-04-27 01:24 | 50.13398 | -101.17764 | 18039 ft | 431 kts | 111° |
| 2026-04-27 01:24 | 50.12603 | -101.13245 | 18035 ft | 431 kts | 112° |
| 2026-04-27 01:24 | 50.11817 | -101.08792 | 18035 ft | 431 kts | 112° |
| 2026-04-27 01:24 | 50.11020 | -101.04284 | 18040 ft | 430 kts | 112° |
| 2026-04-27 01:25 | 50.10220 | -100.99776 | 18038 ft | 430 kts | 112° |
| 2026-04-27 01:25 | 50.09422 | -100.95284 | 18039 ft | 430 kts | 112° |
| 2026-04-27 01:25 | 50.08620 | -100.90781 | 18033 ft | 430 kts | 112° |
| 2026-04-27 01:25 | 50.07818 | -100.86296 | 18032 ft | 430 kts | 112° |
| 2026-04-27 01:26 | 50.07021 | -100.81845 | 18035 ft | 430 kts | 112° |
| 2026-04-27 01:26 | 50.06216 | -100.77360 | 18036 ft | 430 kts | 112° |
| 2026-04-27 01:26 | 50.05681 | -100.74388 | 18034 ft | 430 kts | 112° |
| 2026-04-27 01:26 | 50.04610 | -100.68449 | 18038 ft | 429 kts | 112° |
| 2026-04-27 01:27 | 50.03801 | -100.63975 | 18033 ft | 429 kts | 112° |
| 2026-04-27 01:27 | 50.02991 | -100.59505 | 18038 ft | 429 kts | 112° |
| 2026-04-27 01:27 | 50.02178 | -100.55036 | 18037 ft | 429 kts | 112° |
| 2026-04-27 01:27 | 50.01639 | -100.52074 | 18039 ft | 429 kts | 112° |
| 2026-04-27 01:28 | 50.00824 | -100.47607 | 18034 ft | 429 kts | 112° |
| 2026-04-27 01:28 | 50.00005 | -100.43129 | 18031 ft | 428 kts | 112° |
| 2026-04-27 01:28 | 49.99186 | -100.38667 | 18012 ft | 428 kts | 112° |
| 2026-04-27 01:28 | 49.98377 | -100.34266 | 18007 ft | 428 kts | 112° |
| 2026-04-27 01:29 | 49.97555 | -100.29804 | 17999 ft | 428 kts | 112° |
| 2026-04-27 01:29 | 49.96733 | -100.25352 | 18012 ft | 427 kts | 112° |
| 2026-04-27 01:29 | 49.95911 | -100.20913 | 18102 ft | 428 kts | 112° |
| 2026-04-27 01:29 | 49.95095 | -100.16521 | 18094 ft | 429 kts | 112° |
| 2026-04-27 01:30 | 49.94267 | -100.12071 | 18086 ft | 429 kts | 112° |
| 2026-04-27 01:30 | 49.93438 | -100.07622 | 18080 ft | 428 kts | 112° |
| 2026-04-27 01:30 | 49.92607 | -100.03180 | 18079 ft | 428 kts | 112° |
| 2026-04-27 01:30 | 49.91775 | -99.98739 | 18078 ft | 428 kts | 112° |
| 2026-04-27 01:31 | 49.90944 | -99.94284 | 18079 ft | 430 kts | 109° |
| 2026-04-27 01:31 | 49.90630 | -99.89677 | 18082 ft | 437 kts | 97° |
| 2026-04-27 01:31 | 49.90443 | -99.84954 | 18084 ft | 437 kts | 97° |
| 2026-04-27 01:31 | 49.90266 | -99.80223 | 18081 ft | 437 kts | 97° |
| 2026-04-27 01:32 | 49.90080 | -99.75579 | 18091 ft | 437 kts | 98° |
| 2026-04-27 01:32 | 49.89877 | -99.70879 | 18101 ft | 436 kts | 98° |
| 2026-04-27 01:32 | 49.89664 | -99.66172 | 18105 ft | 436 kts | 98° |
| 2026-04-27 01:32 | 49.89446 | -99.61485 | 18113 ft | 436 kts | 98° |
| 2026-04-27 01:33 | 49.89222 | -99.56787 | 18118 ft | 436 kts | 98° |
| 2026-04-27 01:33 | 49.88995 | -99.52088 | 18124 ft | 436 kts | 98° |
| 2026-04-27 01:33 | 49.88766 | -99.47403 | 18125 ft | 436 kts | 98° |
| 2026-04-27 01:33 | 49.88534 | -99.42702 | 18136 ft | 436 kts | 98° |
| 2026-04-27 01:34 | 49.88304 | -99.38079 | 18087 ft | 431 kts | 98° |
| 2026-04-27 01:34 | 49.88080 | -99.33536 | 17394 ft | 417 kts | 98° |
| 2026-04-27 01:34 | 49.87852 | -99.29042 | 16238 ft | 417 kts | 98° |
| 2026-04-27 01:34 | 49.87623 | -99.24576 | 15290 ft | 412 kts | 98° |
| 2026-04-27 01:35 | 49.87397 | -99.20193 | 14426 ft | 403 kts | 97° |
| 2026-04-27 01:35 | 49.87175 | -99.15900 | 13531 ft | 394 kts | 97° |
| 2026-04-27 01:35 | 49.86956 | -99.11706 | 12573 ft | 386 kts | 97° |
| 2026-04-27 01:35 | 49.86741 | -99.07602 | 11647 ft | 378 kts | 97° |
| 2026-04-27 01:36 | 49.86528 | -99.03577 | 10799 ft | 370 kts | 97° |
| 2026-04-27 01:36 | 49.86321 | -98.99699 | 10172 ft | 363 kts | 97° |
| 2026-04-27 01:36 | 49.86114 | -98.95845 | 9217 ft | 355 kts | 97° |
| 2026-04-27 01:36 | 49.85910 | -98.92067 | 8264 ft | 349 kts | 97° |
| 2026-04-27 01:37 | 49.85708 | -98.88352 | 7346 ft | 342 kts | 97° |
| 2026-04-27 01:37 | 49.85509 | -98.84710 | 6478 ft | 335 kts | 97° |
| 2026-04-27 01:37 | 49.85312 | -98.81137 | 5607 ft | 327 kts | 96° |
| 2026-04-27 01:37 | 49.85121 | -98.77686 | 5001 ft | 322 kts | 96° |
| 2026-04-27 01:38 | 49.84929 | -98.74245 | 4397 ft | 318 kts | 95° |
| 2026-04-27 01:38 | 49.84739 | -98.70847 | 4070 ft | 315 kts | 95° |
| 2026-04-27 01:38 | 49.84549 | -98.67474 | 4020 ft | 314 kts | 95° |
| 2026-04-27 01:38 | 49.84359 | -98.64110 | 4019 ft | 314 kts | 95° |
| 2026-04-27 01:39 | 49.84167 | -98.60719 | 4019 ft | 314 kts | 95° |
| 2026-04-27 01:39 | 49.83974 | -98.57343 | 4022 ft | 314 kts | 96° |
| 2026-04-27 01:39 | 49.83781 | -98.53973 | 4011 ft | 314 kts | 95° |
| 2026-04-27 01:39 | 49.83587 | -98.50602 | 4020 ft | 314 kts | 96° |
| 2026-04-27 01:40 | 49.83392 | -98.47237 | 4013 ft | 314 kts | 96° |
| 2026-04-27 01:40 | 49.83198 | -98.43901 | 4020 ft | 314 kts | 96° |
| 2026-04-27 01:40 | 49.83001 | -98.40525 | 4021 ft | 314 kts | 96° |
| 2026-04-27 01:40 | 49.82803 | -98.37152 | 4015 ft | 314 kts | 95° |
| 2026-04-27 01:41 | 49.82604 | -98.33783 | 4024 ft | 311 kts | 96° |
| 2026-04-27 01:41 | 49.82416 | -98.30610 | 4013 ft | 286 kts | 96° |
| 2026-04-27 01:41 | 49.82240 | -98.27645 | 4005 ft | 271 kts | 96° |
| 2026-04-27 01:41 | 49.82067 | -98.24757 | 4013 ft | 268 kts | 96° |
| 2026-04-27 01:42 | 49.81894 | -98.21882 | 4020 ft | 267 kts | 96° |
| 2026-04-27 01:42 | 49.81720 | -98.19020 | 4017 ft | 267 kts | 96° |
| 2026-04-27 01:42 | 49.81546 | -98.16157 | 4023 ft | 267 kts | 96° |
| 2026-04-27 01:42 | 49.81374 | -98.13323 | 4017 ft | 268 kts | 96° |
| 2026-04-27 01:43 | 49.81190 | -98.10329 | 4031 ft | 291 kts | 96° |
| 2026-04-27 01:43 | 49.80990 | -98.07084 | 4018 ft | 308 kts | 96° |
| 2026-04-27 01:43 | 49.80787 | -98.03785 | 4014 ft | 313 kts | 96° |
| 2026-04-27 01:43 | 49.80580 | -98.00428 | 4020 ft | 313 kts | 96° |
| 2026-04-27 01:44 | 49.80395 | -97.97058 | 4014 ft | 314 kts | 95° |
| 2026-04-27 01:44 | 49.80228 | -97.93683 | 4019 ft | 313 kts | 95° |
| 2026-04-27 01:44 | 49.80065 | -97.90314 | 4014 ft | 314 kts | 95° |
| 2026-04-27 01:44 | 49.79901 | -97.86949 | 4025 ft | 314 kts | 95° |
| 2026-04-27 01:45 | 49.79736 | -97.83575 | 4029 ft | 314 kts | 95° |
| 2026-04-27 01:45 | 49.79571 | -97.80243 | 4023 ft | 313 kts | 95° |
| 2026-04-27 01:45 | 49.79404 | -97.76872 | 4014 ft | 313 kts | 95° |
| 2026-04-27 01:45 | 49.79235 | -97.73508 | 4023 ft | 313 kts | 95° |
| 2026-04-27 01:46 | 49.79066 | -97.70155 | 4015 ft | 313 kts | 95° |
| 2026-04-27 01:46 | 49.78896 | -97.66792 | 4018 ft | 313 kts | 95° |
| 2026-04-27 01:46 | 49.78725 | -97.63434 | 4011 ft | 313 kts | 95° |
| 2026-04-27 01:46 | 49.78555 | -97.60116 | 4001 ft | 313 kts | 95° |
| 2026-04-27 01:47 | 49.78379 | -97.56764 | 4008 ft | 313 kts | 95° |
| 2026-04-27 01:47 | 49.78173 | -97.53413 | 4008 ft | 313 kts | 96° |
| 2026-04-27 01:47 | 49.77953 | -97.50054 | 4000 ft | 313 kts | 96° |
| 2026-04-27 01:47 | 49.77729 | -97.46696 | 4004 ft | 313 kts | 96° |
| 2026-04-27 01:48 | 49.77506 | -97.43357 | 4007 ft | 312 kts | 96° |
| 2026-04-27 01:48 | 49.77282 | -97.40011 | 4000 ft | 307 kts | 96° |
| 2026-04-27 01:48 | 49.77081 | -97.36912 | 3986 ft | 278 kts | 95° |
| 2026-04-27 01:48 | 49.76963 | -97.34061 | 3987 ft | 253 kts | 94° |
| 2026-04-27 01:49 | 49.76877 | -97.31465 | 3989 ft | 229 kts | 94° |
| 2026-04-27 01:49 | 49.76796 | -97.29063 | 3986 ft | 217 kts | 94° |
| 2026-04-27 01:49 | 49.76715 | -97.26776 | 3995 ft | 214 kts | 94° |
| 2026-04-27 01:49 | 49.76631 | -97.24486 | 4005 ft | 212 kts | 94° |
| 2026-04-27 01:50 | 49.76545 | -97.22222 | 3994 ft | 211 kts | 95° |
| 2026-04-27 01:50 | 49.76654 | -97.19969 | 3991 ft | 212 kts | 70° |
| 2026-04-27 01:50 | 49.77610 | -97.18282 | 4002 ft | 212 kts | 32° |
| 2026-04-27 01:50 | 49.78931 | -97.17264 | 3992 ft | 212 kts | 23° |
| 2026-04-27 01:51 | 49.80222 | -97.16419 | 3667 ft | 198 kts | 22° |
| 2026-04-27 01:51 | 49.81507 | -97.15575 | 2934 ft | 202 kts | 22° |
| 2026-04-27 01:51 | 49.82836 | -97.14878 | 2296 ft | 202 kts | 5° |
| 2026-04-27 01:51 | 49.84099 | -97.15395 | 2016 ft | 181 kts | 326° |
| 2026-04-27 01:52 | 49.85014 | -97.16508 | 1986 ft | 158 kts | 318° |
| 2026-04-27 01:52 | 49.85814 | -97.17625 | 1986 ft | 152 kts | 316° |
| 2026-04-27 01:52 | 49.86579 | -97.18750 | 1864 ft | 150 kts | 316° |
| 2026-04-27 01:52 | 49.87346 | -97.19820 | 1747 ft | 147 kts | 318° |
| 2026-04-27 01:53 | 49.88104 | -97.20853 | 1426 ft | 144 kts | 318° |
| 2026-04-27 01:53 | 49.88853 | -97.21893 | 1105 ft | 144 kts | 319° |
| 2026-04-27 01:53 | 49.89601 | -97.22926 | 867 ft | 141 kts | 320° |
| 2026-04-27 01:53 | 49.90237 | -97.23809 | 799 ft | 101 kts | 319° |
| 2026-04-27 01:54 | 49.90527 | -97.24183 | 798 ft | 27 kts | 322° |
| 2026-04-27 01:54 | 49.90651 | -97.24339 | 801 ft | 20 kts | 322° |
| 2026-04-27 01:54 | 49.90693 | -97.24428 | 800 ft | 5 kts | 253° |
| 2026-04-27 01:54 | 49.90676 | -97.24483 | 800 ft | 7 kts | 235° |
| 2026-04-27 01:55 | 49.90627 | -97.24553 | 798 ft | 12 kts | 201° |
| 2026-04-27 01:55 | 49.90563 | -97.24547 | 796 ft | 10 kts | 178° |
| 2026-04-27 01:55 | 49.90483 | -97.24549 | 797 ft | 13 kts | 180° |
| 2026-04-27 01:55 | 49.90387 | -97.24548 | 797 ft | 16 kts | 179° |
| 2026-04-27 01:56 | 49.90157 | -97.24591 | 796 ft | 17 kts | 187° |
| 2026-04-27 01:56 | 49.90041 | -97.24602 | 796 ft | 14 kts | 159° |
| 2026-04-27 01:56 | 49.89975 | -97.24547 | 795 ft | 11 kts | 163° |
| 2026-04-27 01:57 | 49.89892 | -97.24559 | 795 ft | 13 kts | 188° |
| 2026-04-27 01:57 | 49.89874 | -97.24592 | 795 ft | 2 kts | 276° |
| 2026-04-27 01:57 | 49.89875 | -97.24606 | 795 ft | 0 kts | 276° |